Time;durP1;ratioP1;P1;durP2;ratioP2;P2;SDS_P1;SDS_P2;PMS_P1;PMS_P2;Temp;Humidity;BMP_temperature;BMP_pressure;BME280_temperature;BME280_humidity;BME280_pressure;Samples;Min_cycle;Max_cycle;Signal;HPM_P1;HPM_P2
2022/08/27 00:00:32;;;;;;;13.90;4.60;;;;;;;20.58;100.00;101201.94;5015252;28;20053;-74
2022/08/27 00:03:00;;;;;;;11.43;4.20;;;;;;;20.61;100.00;101201.06;5020099;28;20091;-75
2022/08/27 00:05:27;;;;;;;21.83;4.78;;;;;;;20.59;100.00;101198.69;4999130;28;20192;-75
2022/08/27 00:07:53;;;;;;;11.38;4.43;;;;;;;20.54;100.00;101195.63;5022569;28;20045;-75
2022/08/27 00:10:25;;;;;;;14.20;4.30;;;;;;;20.58;100.00;101202.72;5020904;28;20509;-77
2022/08/27 00:12:55;;;;;;;15.18;4.35;;;;;;;20.53;100.00;101196.88;5017314;28;20061;-75
2022/08/27 00:15:23;;;;;;;11.93;4.45;;;;;;;20.58;100.00;101199.91;5011832;28;20911;-74
2022/08/27 00:17:50;;;;;;;14.90;5.95;;;;;;;20.57;100.00;101195.53;5018912;28;20203;-74
2022/08/27 00:20:20;;;;;;;11.70;4.72;;;;;;;20.59;100.00;101195.06;5012810;28;20045;-77
2022/08/27 00:22:47;;;;;;;12.40;6.30;;;;;;;20.56;100.00;101193.97;5015548;28;20959;-75
2022/08/27 00:25:14;;;;;;;14.25;5.22;;;;;;;20.55;100.00;101186.00;5010435;28;20049;-76
2022/08/27 00:27:40;;;;;;;12.52;4.30;;;;;;;20.53;100.00;101194.06;5032157;28;20054;-74
2022/08/27 00:30:11;;;;;;;15.45;4.57;;;;;;;20.53;100.00;101192.06;5031795;28;20867;-75
2022/08/27 00:32:39;;;;;;;12.85;4.53;;;;;;;20.56;100.00;101190.38;5037040;28;20051;-74
2022/08/27 00:35:06;;;;;;;21.02;6.53;;;;;;;20.46;100.00;101194.31;5037710;28;20228;-74
2022/08/27 00:37:33;;;;;;;11.77;4.35;;;;;;;20.43;100.00;101196.03;5029190;28;20841;-76
2022/08/27 00:40:01;;;;;;;6.97;4.13;;;;;;;20.39;100.00;101193.31;5032806;28;20048;-77
2022/08/27 00:42:27;;;;;;;8.63;4.03;;;;;;;20.37;100.00;101195.00;5040158;28;20091;-74
2022/08/27 00:44:56;;;;;;;13.68;4.22;;;;;;;20.29;100.00;101185.25;5035081;28;20218;-77
2022/08/27 00:47:26;;;;;;;11.88;4.10;;;;;;;20.23;100.00;101190.66;5041016;28;20057;-77
2022/08/27 00:50:11;;;;;;;12.82;4.72;;;;;;;20.19;100.00;101200.44;5041594;28;20049;-77
2022/08/27 00:52:50;;;;;;;9.70;4.63;;;;;;;20.11;100.00;101194.28;5039220;28;20060;-77
2022/08/27 00:55:20;;;;;;;15.60;4.50;;;;;;;20.07;100.00;101187.16;5031275;28;20304;-77
2022/08/27 00:58:00;;;;;;;11.20;4.25;;;;;;;20.06;100.00;101192.00;5032165;28;20052;-76
2022/08/27 01:00:30;;;;;;;12.45;4.45;;;;;;;20.00;100.00;101188.19;5031169;28;20056;-75
2022/08/27 01:02:56;;;;;;;14.13;4.65;;;;;;;20.02;100.00;101194.13;5028996;28;20826;-75
2022/08/27 01:05:25;;;;;;;15.15;4.78;;;;;;;19.98;100.00;101187.84;5038030;28;20053;-77
2022/08/27 01:07:56;;;;;;;17.00;4.72;;;;;;;20.00;100.00;101193.81;5029727;28;20056;-77
2022/08/27 01:10:27;;;;;;;17.20;4.38;;;;;;;19.97;100.00;101203.13;5031158;28;20053;-74
2022/08/27 01:12:55;;;;;;;15.82;5.25;;;;;;;19.88;100.00;101197.38;5041440;28;20053;-77
2022/08/27 01:15:23;;;;;;;16.02;5.15;;;;;;;19.87;100.00;101195.81;5059673;28;20040;-77
2022/08/27 01:17:50;;;;;;;10.57;4.25;;;;;;;19.77;100.00;101196.94;5058650;28;20041;-74
2022/08/27 01:20:21;;;;;;;11.57;4.40;;;;;;;19.79;100.00;101194.47;5061177;28;20054;-76
2022/08/27 01:22:56;;;;;;;13.57;5.00;;;;;;;19.77;100.00;101198.94;5054699;28;20049;-74
2022/08/27 01:25:24;;;;;;;;;;;;;;;19.76;100.00;101192.56;5053112;28;20428;-74
2022/08/27 01:27:52;;;;;;;9.90;3.65;;;;;;;19.73;100.00;101198.28;5062635;28;20011;-77
2022/08/27 01:30:20;;;;;;;11.43;4.53;;;;;;;19.73;100.00;101199.09;5057068;28;20057;-74
2022/08/27 01:32:49;;;;;;;10.82;4.90;;;;;;;19.67;100.00;101195.25;5058354;28;20061;-77
2022/08/27 01:35:17;;;;;;;11.73;4.75;;;;;;;19.57;100.00;101193.56;5051234;28;20055;-77
2022/08/27 01:37:48;;;;;;;16.40;4.15;;;;;;;19.58;100.00;101189.50;5057563;28;20044;-75
2022/08/27 01:40:18;;;;;;;10.30;3.92;;;;;;;19.53;100.00;101187.25;5056824;28;20045;-77
2022/08/27 01:42:49;;;;;;;15.88;3.97;;;;;;;19.47;100.00;101194.66;5059104;28;20471;-74
2022/08/27 01:45:29;;;;;;;14.60;4.40;;;;;;;19.57;100.00;101195.56;5065490;28;20741;-74
2022/08/27 01:47:56;;;;;;;13.55;4.43;;;;;;;19.65;100.00;101196.94;5057206;28;20168;-75
2022/08/27 01:50:27;;;;;;;11.80;4.18;;;;;;;19.62;100.00;101195.03;5052533;28;20141;-78
2022/08/27 01:52:55;;;;;;;11.57;4.60;;;;;;;19.53;100.00;101204.09;5052527;28;20056;-74
2022/08/27 01:55:24;;;;;;;14.02;4.50;;;;;;;19.50;100.00;101192.97;5060698;28;20420;-77
2022/08/27 01:57:53;;;;;;;13.85;4.28;;;;;;;19.54;100.00;101200.06;5057170;28;20048;-79
2022/08/27 02:00:44;;;;;;;13.18;5.32;;;;;;;19.55;100.00;101193.22;5066014;28;20143;-76
2022/08/27 02:03:12;;;;;;;12.77;4.32;;;;;;;19.49;100.00;101188.59;5057707;28;20080;-77
2022/08/27 02:05:39;;;;;;;17.77;4.47;;;;;;;19.52;100.00;101185.69;5057932;28;20110;-77
2022/08/27 02:08:11;;;;;;;16.40;3.42;;;;;;;19.48;100.00;101185.00;5056035;28;20564;-77
2022/08/27 02:10:39;;;;;;;14.05;3.70;;;;;;;19.56;100.00;101194.00;5062633;28;20578;-76
2022/08/27 02:13:07;;;;;;;15.45;4.97;;;;;;;19.58;100.00;101186.69;5049687;28;20048;-77
2022/08/27 02:15:35;;;;;;;16.85;3.83;;;;;;;19.57;100.00;101181.53;5057736;28;20701;-77
2022/08/27 02:18:03;;;;;;;11.68;3.30;;;;;;;19.67;100.00;101192.44;5065263;28;20141;-77
2022/08/27 02:20:30;;;;;;;10.25;3.42;;;;;;;19.68;100.00;101182.78;5056213;28;20135;-78
2022/08/27 02:22:57;;;;;;;12.82;3.00;;;;;;;19.73;100.00;101189.84;5054826;28;20175;-77
2022/08/27 02:25:24;;;;;;;17.25;3.70;;;;;;;19.72;100.00;101188.28;5060331;28;20051;-78
2022/08/27 02:27:51;;;;;;;18.80;4.93;;;;;;;19.74;100.00;101174.56;5063588;28;20135;-77
2022/08/27 02:30:21;;;;;;;12.52;3.25;;;;;;;19.74;100.00;101175.38;5054418;28;20057;-76
2022/08/27 02:32:48;;;;;;;14.68;3.20;;;;;;;19.69;100.00;101175.16;5056021;28;20059;-77
2022/08/27 02:35:16;;;;;;;10.30;3.22;;;;;;;19.73;100.00;101182.22;5054107;28;20055;-77
2022/08/27 02:37:44;;;;;;;12.75;3.38;;;;;;;19.69;100.00;101177.97;5063234;28;20051;-77
2022/08/27 02:40:15;;;;;;;10.63;2.55;;;;;;;19.68;100.00;101177.16;5060939;28;20416;-76
2022/08/27 02:42:42;;;;;;;12.65;3.22;;;;;;;19.68;100.00;101182.00;5062143;28;20056;-76
2022/08/27 02:45:09;;;;;;;14.48;3.20;;;;;;;19.72;100.00;101180.66;5058784;28;20087;-77
2022/08/27 02:47:36;;;;;;;8.90;2.60;;;;;;;19.67;100.00;101178.41;5060769;28;20049;-76
2022/08/27 02:50:04;;;;;;;18.13;4.35;;;;;;;19.58;100.00;101169.84;5055156;28;20059;-77
2022/08/27 02:52:30;;;;;;;12.25;2.72;;;;;;;19.61;100.00;101174.56;5060578;28;20052;-77
2022/08/27 02:54:57;;;;;;;11.55;3.20;;;;;;;19.62;100.00;101178.19;5059549;28;20066;-76
2022/08/27 02:57:26;;;;;;;13.50;3.30;;;;;;;19.62;100.00;101181.00;5057982;28;20057;-76
2022/08/27 02:59:52;;;;;;;12.80;3.85;;;;;;;19.58;100.00;101175.47;5056025;28;20052;-76
2022/08/27 03:02:20;;;;;;;10.73;2.85;;;;;;;19.60;100.00;101177.81;5061654;28;20053;-77
2022/08/27 03:04:48;;;;;;;8.35;2.53;;;;;;;19.65;100.00;101180.09;5057010;28;20045;-76
2022/08/27 03:07:16;;;;;;;12.38;3.20;;;;;;;19.70;100.00;101173.91;5053801;28;20052;-76
2022/08/27 03:09:44;;;;;;;14.57;2.78;;;;;;;19.69;100.00;101170.34;5053221;28;20045;-75
2022/08/27 03:12:11;;;;;;;9.38;2.78;;;;;;;19.68;100.00;101174.34;5048686;28;20076;-76
2022/08/27 03:14:38;;;;;;;13.02;3.10;;;;;;;19.65;100.00;101175.25;5055533;28;20136;-76
2022/08/27 03:19:50;;;;;;;7.18;2.55;;;;;;;19.72;100.00;101172.25;5064981;28;20143;-76
2022/08/27 03:22:16;;;;;;;13.55;2.75;;;;;;;19.71;100.00;101173.47;5049276;28;20668;-77
2022/08/27 03:24:42;;;;;;;8.25;2.78;;;;;;;19.67;100.00;101172.00;5055757;28;20067;-76
2022/08/27 03:27:09;;;;;;;13.65;2.95;;;;;;;19.65;100.00;101175.25;5053320;28;20532;-75
2022/08/27 03:29:35;;;;;;;12.25;2.90;;;;;;;19.60;100.00;101184.25;5056802;28;20056;-77
2022/08/27 03:32:05;;;;;;;9.45;2.67;;;;;;;19.53;100.00;101178.84;5056318;28;20055;-76
2022/08/27 03:34:32;;;;;;;9.75;2.50;;;;;;;19.62;100.00;101178.97;5052895;28;20049;-76
2022/08/27 03:36:59;;;;;;;15.90;2.72;;;;;;;19.63;100.00;101180.53;5065189;28;20045;-77
2022/08/27 03:39:25;;;;;;;9.15;2.40;;;;;;;19.58;100.00;101174.69;5053468;28;20531;-75
2022/08/27 03:41:53;;;;;;;13.80;2.90;;;;;;;19.62;100.00;101183.78;5057592;28;20144;-76
2022/08/27 03:44:22;;;;;;;10.90;2.72;;;;;;;19.64;100.00;101184.91;5054130;28;20063;-77
2022/08/27 03:46:50;;;;;;;12.68;3.03;;;;;;;19.59;100.00;101181.88;5066831;28;20055;-76
2022/08/27 03:49:19;;;;;;;9.65;2.85;;;;;;;19.61;100.00;101185.81;5062727;28;20520;-76
2022/08/27 03:51:48;;;;;;;13.93;2.53;;;;;;;19.57;100.00;101187.94;5058726;28;20057;-76
2022/08/27 03:54:15;;;;;;;11.35;2.67;;;;;;;19.55;100.00;101190.44;5055024;28;20051;-76
2022/08/27 03:56:42;;;;;;;10.43;2.63;;;;;;;19.53;100.00;101181.66;5060534;28;20497;-76
2022/08/27 03:59:08;;;;;;;11.00;3.13;;;;;;;19.52;100.00;101182.09;5053178;28;20128;-74
2022/08/27 04:01:35;;;;;;;12.90;2.60;;;;;;;19.47;100.00;101175.00;5054333;28;20049;-75
2022/08/27 04:04:02;;;;;;;10.55;2.53;;;;;;;19.57;100.00;101175.91;5053017;28;20501;-76
2022/08/27 04:06:29;;;;;;;13.02;2.75;;;;;;;19.59;100.00;101176.28;5062848;28;20055;-76
2022/08/27 04:08:55;;;;;;;10.98;2.70;;;;;;;19.62;100.00;101184.59;5061737;28;20048;-77
2022/08/27 04:11:22;;;;;;;9.88;2.80;;;;;;;19.64;100.00;101184.16;5062377;28;20088;-76
2022/08/27 04:13:48;;;;;;;9.10;2.88;;;;;;;19.58;100.00;101189.50;5052644;28;20041;-76
2022/08/27 04:16:16;;;;;;;15.77;2.80;;;;;;;19.64;100.00;101186.97;5063041;28;20358;-76
2022/08/27 04:18:42;;;;;;;9.95;2.65;;;;;;;19.67;100.00;101186.81;5066099;28;20744;-76
2022/08/27 04:21:11;;;;;;;7.45;2.65;;;;;;;19.70;100.00;101188.75;5061155;28;20132;-76
2022/08/27 04:23:39;;;;;;;11.00;2.50;;;;;;;19.74;100.00;101188.63;5053145;28;20044;-78
2022/08/27 04:26:08;;;;;;;13.02;2.75;;;;;;;19.76;100.00;101186.97;5060588;28;20045;-76
2022/08/27 04:28:35;;;;;;;12.95;3.28;;;;;;;19.79;100.00;101185.25;5050020;28;20513;-77
2022/08/27 04:31:05;;;;;;;9.65;3.08;;;;;;;19.80;100.00;101190.44;5049203;28;20848;-74
2022/08/27 04:33:34;;;;;;;9.40;3.05;;;;;;;19.84;100.00;101185.50;5059288;28;20101;-76
2022/08/27 04:36:03;;;;;;;12.90;2.75;;;;;;;19.88;100.00;101186.16;5059193;28;20519;-77
2022/08/27 04:38:29;;;;;;;13.73;4.45;;;;;;;19.86;100.00;101194.25;5058914;28;20497;-76
2022/08/27 04:41:18;;;;;;;8.70;2.58;;;;;;;19.83;100.00;101188.75;5058839;28;20049;-76
2022/08/27 04:43:54;;;;;;;15.65;3.15;;;;;;;19.84;100.00;101191.09;5059467;28;20041;-77
2022/08/27 04:46:28;;;;;;;14.20;3.15;;;;;;;19.83;100.00;101191.56;5054946;28;20059;-76
2022/08/27 04:49:00;;;;;;;9.70;2.83;;;;;;;19.81;100.00;101189.19;5058023;28;20504;-76
2022/08/27 04:51:28;;;;;;;8.73;2.50;;;;;;;19.85;100.00;101197.53;5048900;28;20049;-77
2022/08/27 04:53:56;;;;;;;13.10;3.25;;;;;;;19.83;100.00;101199.97;5050383;28;20077;-77
2022/08/27 04:56:26;;;;;;;10.32;2.53;;;;;;;19.78;100.00;101178.84;5052643;28;20044;-75
2022/08/27 04:58:53;;;;;;;8.68;2.63;;;;;;;19.85;100.00;101198.28;5061484;28;20049;-74
2022/08/27 05:01:24;;;;;;;11.40;2.58;;;;;;;19.86;100.00;101194.25;5064593;28;20075;-74
2022/08/27 05:03:51;;;;;;;7.75;2.40;;;;;;;19.87;100.00;101198.63;5052331;28;20136;-79
2022/08/27 05:06:18;;;;;;;10.20;2.40;;;;;;;19.93;100.00;101208.06;5049363;28;20060;-78
2022/08/27 05:08:44;;;;;;;13.40;3.00;;;;;;;19.96;100.00;101209.19;5059371;28;20045;-77
2022/08/27 05:11:13;;;;;;;9.68;2.47;;;;;;;19.97;100.00;101205.94;5055137;28;20077;-75
2022/08/27 05:13:42;;;;;;;10.45;2.30;;;;;;;19.98;100.00;101207.50;5050338;28;20056;-76
2022/08/27 05:16:11;;;;;;;8.73;2.80;;;;;;;19.99;100.00;101209.09;5059509;28;20044;-75
2022/08/27 05:18:39;;;;;;;12.55;2.60;;;;;;;20.04;100.00;101204.91;5061367;28;20047;-74
2022/08/27 05:21:18;;;;;;;11.18;3.08;;;;;;;20.04;100.00;101197.28;5057338;28;20044;-74
2022/08/27 05:23:46;;;;;;;9.18;2.30;;;;;;;20.05;100.00;101198.06;5059396;28;20053;-74
2022/08/27 05:26:14;;;;;;;7.20;2.20;;;;;;;20.13;100.00;101205.06;5052476;28;20057;-75
2022/08/27 05:28:40;;;;;;;12.63;2.83;;;;;;;20.12;100.00;101207.06;5060100;28;20048;-75
2022/08/27 05:31:09;;;;;;;8.45;2.05;;;;;;;20.08;100.00;101209.19;5055423;28;20053;-73
2022/08/27 05:33:38;;;;;;;14.30;2.78;;;;;;;20.12;100.00;101204.25;5062987;28;20091;-74
2022/08/27 05:36:05;;;;;;;7.20;2.20;;;;;;;20.17;100.00;101205.72;5059606;28;20044;-75
2022/08/27 05:38:32;;;;;;;7.13;2.05;;;;;;;20.17;100.00;101212.13;5058066;28;20618;-74
2022/08/27 05:41:03;;;;;;;11.50;2.38;;;;;;;20.21;100.00;101210.00;5057533;28;20127;-74
2022/08/27 05:43:31;;;;;;;5.18;1.85;;;;;;;20.26;100.00;101205.84;5063172;28;20067;-74
2022/08/27 05:45:57;;;;;;;9.38;2.22;;;;;;;20.25;100.00;101210.66;5068206;28;20055;-76
2022/08/27 05:48:24;;;;;;;10.80;2.42;;;;;;;20.29;100.00;101202.88;5061766;28;20048;-75
2022/08/27 05:50:50;;;;;;;8.18;2.05;;;;;;;20.30;100.00;101203.69;5063736;28;20049;-73
2022/08/27 05:53:17;;;;;;;9.30;2.50;;;;;;;20.27;100.00;101211.00;5063733;28;20526;-75
2022/08/27 05:55:44;;;;;;;12.70;2.53;;;;;;;20.29;100.00;101202.88;5065971;28;20091;-79
2022/08/27 06:01:03;;;;;;;10.13;2.50;;;;;;;20.32;100.00;101206.84;5059813;28;20045;-76
2022/08/27 06:01:06;;;;;;;12.05;2.70;;;;;;;20.31;100.00;101210.88;5054727;28;20160;-73
2022/08/27 06:03:37;;;;;;;9.40;2.85;;;;;;;20.35;100.00;101212.31;5059772;28;20052;-73
2022/08/27 06:06:07;;;;;;;11.88;2.28;;;;;;;20.37;100.00;101211.88;5067207;28;20754;-75
2022/08/27 06:08:35;;;;;;;12.15;2.38;;;;;;;20.38;100.00;101215.47;5064734;28;20127;-76
2022/08/27 06:11:04;;;;;;;8.77;2.38;;;;;;;20.40;100.00;101213.78;5061747;28;20068;-75
2022/08/27 06:13:33;;;;;;;11.68;2.35;;;;;;;20.42;100.00;101216.94;5061063;28;20083;-75
2022/08/27 06:16:04;;;;;;;8.32;2.22;;;;;;;20.39;100.00;101213.00;5073091;28;20036;-74
2022/08/27 06:18:33;;;;;;;8.50;2.08;;;;;;;20.36;100.00;101218.75;5058721;28;20056;-74
2022/08/27 06:20:59;;;;;;;9.68;4.05;;;;;;;20.38;100.00;101219.06;5063997;28;20041;-75
2022/08/27 06:23:27;;;;;;;6.03;1.70;;;;;;;20.38;100.00;101226.72;5056210;28;20155;-78
2022/08/27 06:25:55;;;;;;;8.70;2.35;;;;;;;20.41;100.00;101220.97;5054244;28;20397;-75
2022/08/27 06:28:26;;;;;;;8.35;1.85;;;;;;;20.41;100.00;101220.22;5056925;28;20060;-77
2022/08/27 06:30:52;;;;;;;13.82;2.53;;;;;;;20.34;100.00;101230.44;5060947;28;20049;-73
2022/08/27 06:33:20;;;;;;;8.00;2.60;;;;;;;20.32;100.00;101229.31;5068612;28;20048;-79
2022/08/27 06:35:46;;;;;;;6.93;1.98;;;;;;;20.32;100.00;101241.34;5059272;28;20055;-75
2022/08/27 06:38:13;;;;;;;7.43;2.22;;;;;;;20.41;100.00;101235.03;5062441;28;20052;-76
2022/08/27 06:40:40;;;;;;;11.57;2.40;;;;;;;20.48;100.00;101231.97;5067053;28;20040;-77
2022/08/27 06:43:07;;;;;;;9.60;2.58;;;;;;;20.52;100.00;101231.88;5060411;28;20049;-79
2022/08/27 06:45:37;;;;;;;4.43;1.90;;;;;;;20.57;100.00;101228.47;5055898;28;20051;-77
2022/08/27 06:48:04;;;;;;;11.90;2.20;;;;;;;20.63;100.00;101232.28;5057316;28;20074;-81
2022/08/27 06:50:36;;;;;;;14.10;2.50;;;;;;;20.61;100.00;101229.16;5062356;28;20089;-79
2022/08/27 06:53:04;;;;;;;7.90;1.90;;;;;;;20.64;100.00;101229.03;5061219;28;20044;-83
2022/08/27 06:55:30;;;;;;;9.20;2.40;;;;;;;20.72;100.00;101235.97;5059124;28;20040;-82
2022/08/27 06:58:02;;;;;;;9.32;2.30;;;;;;;20.78;100.00;101239.78;5062106;28;20061;-84
2022/08/27 07:00:29;;;;;;;11.88;2.33;;;;;;;20.82;100.00;101236.84;5061171;28;20377;-82
2022/08/27 07:02:56;;;;;;;7.68;2.15;;;;;;;20.84;100.00;101235.16;5058166;28;20135;-83
2022/08/27 07:05:22;;;;;;;6.57;2.05;;;;;;;20.85;100.00;101239.53;5055927;28;20040;-78
2022/08/27 07:07:49;;;;;;;9.93;2.53;;;;;;;20.87;100.00;101244.69;5055980;28;20072;-78
2022/08/27 07:10:15;;;;;;;8.57;2.28;;;;;;;20.93;100.00;101245.69;5059468;28;20102;-80
2022/08/27 07:12:42;;;;;;;12.75;2.10;;;;;;;20.94;100.00;101236.03;5054575;28;20123;-79
2022/08/27 07:15:09;;;;;;;9.90;2.88;;;;;;;20.97;100.00;101247.19;5056926;28;20412;-81
2022/08/27 07:17:36;;;;;;;4.68;2.25;;;;;;;21.03;100.00;101244.56;5056778;28;20059;-80
2022/08/27 07:20:04;;;;;;;10.68;2.55;;;;;;;21.03;100.00;101241.75;5055782;28;20045;-80
2022/08/27 07:22:30;;;;;;;12.90;3.03;;;;;;;21.02;100.00;101238.16;5055301;28;20524;-80
2022/08/27 07:24:57;;;;;;;14.93;2.75;;;;;;;21.05;100.00;101225.19;5058442;28;20098;-80
2022/08/27 07:27:23;;;;;;;9.93;2.38;;;;;;;20.96;100.00;101227.94;5056019;28;20037;-78
2022/08/27 07:29:50;;;;;;;10.43;2.45;;;;;;;20.82;100.00;101228.41;5053099;28;20049;-79
2022/08/27 07:32:17;;;;;;;13.45;3.20;;;;;;;20.83;100.00;101221.53;5058301;28;20052;-77
2022/08/27 07:34:43;;;;;;;12.25;2.83;;;;;;;20.94;100.00;101230.41;5057180;28;20040;-79
2022/08/27 07:37:10;;;;;;;10.35;2.92;;;;;;;21.03;100.00;101236.94;5058930;28;20140;-75
2022/08/27 07:39:36;;;;;;;11.40;2.15;;;;;;;21.10;100.00;101235.88;5055230;28;20057;-78
2022/08/27 07:44:48;;;;;;;11.32;2.55;;;;;;;21.32;100.00;101233.84;5055298;28;20074;-76
2022/08/27 07:47:15;;;;;;;14.68;2.70;;;;;;;21.42;100.00;101241.91;5058757;28;20139;-77
2022/08/27 07:49:41;;;;;;;6.25;1.67;;;;;;;21.56;100.00;101235.72;5057662;28;20049;-82
2022/08/27 07:52:08;;;;;;;10.35;2.13;;;;;;;21.61;99.21;101239.97;5056516;28;20049;-83
2022/08/27 07:54:35;;;;;;;14.45;2.33;;;;;;;21.69;98.43;101253.34;5060496;28;20505;-80
2022/08/27 07:57:01;;;;;;;10.98;2.58;;;;;;;21.66;97.90;101247.81;5055817;28;20297;-79
2022/08/27 07:59:28;;;;;;;11.13;2.30;;;;;;;21.71;98.08;101250.06;5059336;28;20547;-79
2022/08/27 08:01:55;;;;;;;20.90;3.60;;;;;;;21.76;97.27;101252.28;5059255;28;20128;-78
2022/08/27 08:04:23;;;;;;;8.68;2.55;;;;;;;21.79;96.29;101252.16;5053920;28;20052;-77
2022/08/27 08:06:50;;;;;;;13.65;3.20;;;;;;;21.86;96.65;101251.91;5056360;28;20044;-78
2022/08/27 08:09:18;;;;;;;4.70;1.80;;;;;;;21.90;96.24;101249.72;5060173;28;20060;-82
2022/08/27 08:11:45;;;;;;;8.60;2.00;;;;;;;21.93;95.73;101248.00;5050616;28;20055;-82
2022/08/27 08:14:11;;;;;;;13.40;2.58;;;;;;;22.03;96.19;101252.44;5032931;28;20045;-82
2022/08/27 08:16:38;;;;;;;13.05;2.55;;;;;;;22.09;95.33;101253.41;5036258;28;20052;-82
2022/08/27 08:19:04;;;;;;;12.10;2.42;;;;;;;22.12;94.43;101258.91;5034530;28;20191;-80
2022/08/27 08:21:31;;;;;;;9.52;2.30;;;;;;;22.21;94.61;101258.94;5035765;28;20909;-82
2022/08/27 08:23:58;;;;;;;8.88;2.53;;;;;;;22.25;92.89;101265.22;5039261;28;20164;-80
2022/08/27 08:26:25;;;;;;;11.90;2.70;;;;;;;22.22;92.29;101256.91;5042151;28;20441;-83
2022/08/27 08:28:51;;;;;;;9.70;2.13;;;;;;;22.30;91.55;101258.19;5034420;28;20062;-83
2022/08/27 08:31:18;;;;;;;7.85;2.38;;;;;;;22.37;91.33;101269.16;5038859;28;20060;-84
2022/08/27 08:33:46;;;;;;;9.48;2.15;;;;;;;22.38;91.23;101260.25;5034752;28;20048;-80
2022/08/27 08:36:15;;;;;;;9.43;2.58;;;;;;;22.41;90.93;101264.97;5035349;28;20180;-79
2022/08/27 08:38:44;;;;;;;7.55;2.10;;;;;;;22.48;89.86;101264.69;5038580;28;20281;-74
2022/08/27 08:41:33;;;;;;;9.32;2.40;;;;;;;22.54;88.97;101274.13;5038583;28;20053;-76
2022/08/27 08:44:05;;;;;;;10.93;1.85;;;;;;;22.52;88.33;101273.78;5036728;28;20666;-76
2022/08/27 08:46:40;;;;;;;8.88;2.08;;;;;;;22.55;87.11;101272.09;5037117;28;20159;-75
2022/08/27 08:49:29;;;;;;;6.18;1.80;;;;;;;22.58;86.97;101276.81;5033704;28;20751;-73
2022/08/27 08:52:08;;;;;;;10.32;2.70;;;;;;;22.69;87.53;101279.94;5046667;28;20175;-79
2022/08/27 08:54:34;;;;;;;6.22;2.03;;;;;;;22.69;86.54;101269.44;5040266;28;20056;-86
2022/08/27 08:57:17;;;;;;;13.73;2.90;;;;;;;22.68;84.18;101262.22;5040905;28;20055;-81
2022/08/27 08:59:50;;;;;;;5.97;1.77;;;;;;;22.70;84.45;101268.19;5038636;28;20052;-76
2022/08/27 09:02:17;;;;;;;5.68;1.65;;;;;;;22.71;85.89;101269.75;5037911;28;20897;-78
2022/08/27 09:04:43;;;;;;;9.07;2.78;;;;;;;22.67;84.84;101273.97;5042877;28;20057;-79
2022/08/27 09:07:25;;;;;;;8.32;1.92;;;;;;;22.67;83.43;101279.63;5044829;28;20044;-81
2022/08/27 09:09:54;;;;;;;5.82;2.33;;;;;;;22.70;84.08;101273.06;5047081;28;20049;-80
2022/08/27 09:12:25;;;;;;;12.50;3.50;;;;;;;22.71;84.47;101274.59;5041118;28;20777;-82
2022/08/27 09:15:04;;;;;;;4.93;1.75;;;;;;;22.74;85.34;101276.50;5048469;28;20056;-80
2022/08/27 09:17:31;;;;;;;5.50;1.90;;;;;;;22.83;84.77;101273.69;5036197;28;20893;-78
2022/08/27 09:19:58;;;;;;;6.63;1.98;;;;;;;22.79;83.91;101273.84;5052044;28;20730;-81
2022/08/27 09:22:37;;;;;;;13.13;2.50;;;;;;;22.82;83.74;101272.16;5048497;28;20057;-81
2022/08/27 09:25:09;;;;;;;8.45;1.92;;;;;;;22.90;84.31;101273.41;5042923;28;20048;-82
2022/08/27 09:27:40;;;;;;;11.27;2.28;;;;;;;23.00;83.22;101279.81;5049692;28;20673;-81
2022/08/27 09:30:16;;;;;;;7.78;1.90;;;;;;;23.08;82.19;101284.69;5051848;28;20060;-81
2022/08/27 09:32:43;;;;;;;12.68;2.40;;;;;;;23.18;82.13;101283.44;5041521;28;20048;-81
2022/08/27 09:35:12;;;;;;;9.40;2.00;;;;;;;23.18;81.55;101282.69;5047855;28;20055;-80
2022/08/27 09:37:42;;;;;;;7.43;2.10;;;;;;;23.18;80.74;101288.31;5045388;28;20045;-85
2022/08/27 09:40:30;;;;;;;6.65;1.90;;;;;;;23.15;79.54;101287.19;5043219;28;20855;-83
2022/08/27 09:43:22;;;;;;;8.00;1.83;;;;;;;23.26;80.03;101281.13;5039181;28;20499;-79
2022/08/27 09:45:54;;;;;;;8.73;2.03;;;;;;;23.33;80.59;101278.00;5043862;28;20074;-79
2022/08/27 09:48:33;;;;;;;7.70;2.00;;;;;;;23.33;80.11;101272.34;5037659;28;20053;-80
2022/08/27 09:51:08;;;;;;;6.05;2.00;;;;;;;23.39;80.61;101276.09;5042579;28;20049;-79
2022/08/27 09:53:49;;;;;;;10.98;2.30;;;;;;;23.49;79.97;101286.16;5041534;28;20049;-78
2022/08/27 09:56:21;;;;;;;7.72;2.10;;;;;;;23.54;80.09;101280.63;5043284;28;20053;-79
2022/08/27 09:59:01;;;;;;;9.02;1.88;;;;;;;23.62;78.64;101278.28;5051298;28;20048;-79
2022/08/27 10:01:35;;;;;;;5.15;1.88;;;;;;;23.78;79.09;101269.44;5055169;28;20049;-78
2022/08/27 10:04:03;;;;;;;8.85;1.65;;;;;;;23.88;76.63;101271.78;5045076;28;20139;-80
2022/08/27 10:06:31;;;;;;;6.03;1.85;;;;;;;23.99;74.91;101265.66;5056455;28;20052;-78
2022/08/27 10:09:26;;;;;;;5.03;1.67;;;;;;;24.07;72.85;101264.84;5046725;28;20143;-78
2022/08/27 10:12:12;;;;;;;11.82;2.20;;;;;;;24.27;71.62;101267.88;5039690;28;20053;-77
2022/08/27 10:14:45;;;;;;;4.88;1.63;;;;;;;24.43;72.37;101269.56;5050548;28;20052;-80
2022/08/27 10:17:39;;;;;;;7.63;1.75;;;;;;;24.48;69.58;101271.72;5050637;28;20044;-83
2022/08/27 10:20:46;;;;;;;7.90;1.63;;;;;;;24.52;68.43;101272.31;5040533;28;20048;-79
2022/08/27 10:23:27;;;;;;;4.55;1.55;;;;;;;24.55;68.60;101271.34;5020660;28;20269;-79
2022/08/27 10:26:03;;;;;;;9.82;2.15;;;;;;;24.62;68.44;101277.44;5035369;28;20320;-74
2022/08/27 10:28:54;;;;;;;8.73;2.25;;;;;;;24.77;67.56;101274.72;5038528;28;20048;-76
2022/08/27 10:31:39;;;;;;;7.18;1.98;;;;;;;25.12;66.54;101270.06;5042276;28;20052;-76
2022/08/27 10:34:28;;;;;;;4.32;1.52;;;;;;;25.43;65.33;101261.94;5039955;28;20067;-76
2022/08/27 10:37:15;;;;;;;9.70;2.08;;;;;;;25.77;63.92;101263.31;5044640;28;20063;-77
2022/08/27 10:40:16;;;;;;;6.15;1.92;;;;;;;26.14;59.30;101262.44;5045089;28;20049;-79
2022/08/27 10:42:49;;;;;;;8.00;1.70;;;;;;;26.37;58.95;101264.34;5044903;28;20053;-77
2022/08/27 10:45:52;;;;;;;11.32;2.05;;;;;;;26.18;56.14;101256.53;5042306;28;20122;-78
2022/08/27 10:48:25;;;;;;;13.73;1.77;;;;;;;26.37;57.88;101263.56;5053801;28;20647;-82
2022/08/27 10:51:22;;;;;;;6.82;1.60;;;;;;;26.41;55.35;101255.63;5057202;28;20058;-80
2022/08/27 10:54:16;;;;;;;9.15;1.67;;;;;;;26.39;55.51;101263.84;5057185;28;20059;-81
2022/08/27 10:56:53;;;;;;;8.23;1.52;;;;;;;26.29;55.28;101265.25;5059681;28;20052;-81
2022/08/27 10:59:47;;;;;;;9.25;1.92;;;;;;;26.22;56.19;101260.75;5049151;28;20049;-82
2022/08/27 11:02:32;;;;;;;6.18;1.50;;;;;;;26.13;55.77;101254.41;5044606;28;20105;-80
2022/08/27 11:05:05;;;;;;;4.90;1.75;;;;;;;25.85;54.82;101264.50;5048691;28;20059;-82
2022/08/27 11:07:38;;;;;;;9.05;2.03;;;;;;;25.82;57.18;101263.44;5043534;28;20044;-84
2022/08/27 11:10:12;;;;;;;3.28;1.40;;;;;;;25.78;56.75;101265.66;5044566;28;20045;-82
2022/08/27 11:12:43;;;;;;;7.75;1.50;;;;;;;25.75;58.63;101258.13;5042842;28;20045;-79
2022/08/27 11:15:48;;;;;;;7.32;1.85;;;;;;;25.63;56.70;101252.75;5044863;28;20041;-77
2022/08/27 11:18:23;;;;;;;7.30;1.95;;;;;;;25.76;57.80;101258.91;5038447;28;20053;-78
2022/08/27 11:20:59;;;;;;;8.00;2.10;;;;;;;25.70;56.41;101261.66;5046478;28;20059;-80
2022/08/27 11:23:33;;;;;;;6.55;1.98;;;;;;;25.70;57.34;101256.00;5040724;28;20051;-82
2022/08/27 11:26:03;;;;;;;9.23;1.80;;;;;;;25.71;56.70;101253.94;5048685;28;20063;-78
2022/08/27 11:28:50;;;;;;;7.07;2.40;;;;;;;25.70;55.23;101258.03;5044783;28;20078;-79
2022/08/27 11:31:42;;;;;;;5.40;1.70;;;;;;;25.83;56.08;101252.84;5043580;28;20052;-80
2022/08/27 11:34:28;;;;;;;9.73;2.05;;;;;;;26.07;55.30;101254.34;5032943;28;20808;-79
2022/08/27 11:37:27;;;;;;;5.00;2.35;;;;;;;26.32;54.72;101255.75;5041591;28;20052;-79
2022/08/27 11:40:17;;;;;;;6.65;1.85;;;;;;;26.17;54.32;101260.66;5043820;28;20062;-79